Time;durP1;ratioP1;P1;durP2;ratioP2;P2;SDS_P1;SDS_P2;PMS_P1;PMS_P2;Temp;Humidity;BMP_temperature;BMP_pressure;BME280_temperature;BME280_humidity;BME280_pressure;Samples;Min_cycle;Max_cycle;Signal;HPM_P1;HPM_P2
2023/12/03 00:01:48;;;;;;;14.63;9.33;;;;;;;;;;6141478;23;20414;-86
2023/12/03 00:04:18;;;;;;;17.17;9.57;;;;;;;;;;6166965;23;20449;-87
2023/12/03 00:06:54;;;;;;;16.00;9.10;;;;;;;;;;6168637;23;20402;-87
2023/12/03 00:09:46;;;;;;;16.27;11.03;;;;;;;;;;6167917;23;20457;-86
2023/12/03 00:12:40;;;;;;;18.00;10.67;;;;;;;;;;6168012;23;20405;-87
2023/12/03 00:15:11;;;;;;;18.63;10.37;;;;;;;;;;6164725;23;20476;-88
2023/12/03 00:17:38;;;;;;;16.80;10.80;;;;;;;;;;6163522;23;20398;-88
2023/12/03 00:20:09;;;;;;;16.10;10.20;;;;;;;;;;6165041;23;20513;-85
2023/12/03 00:22:37;;;;;;;16.93;9.47;;;;;;;;;;6164707;23;20441;-88
2023/12/03 00:25:21;;;;;;;18.00;9.50;;;;;;;;;;6191657;23;20506;-87
2023/12/03 00:27:57;;;;;;;17.80;11.30;;;;;;;;;;6166534;23;20992;-85
2023/12/03 00:30:26;;;;;;;18.60;10.70;;;;;;;;;;6164015;23;20434;-89
2023/12/03 00:32:56;;;;;;;13.60;10.03;;;;;;;;;;6179325;23;20417;-87
2023/12/03 00:35:27;;;;;;;17.03;10.27;;;;;;;;;;6205376;23;20433;-86
2023/12/03 00:38:16;;;;;;;17.33;9.80;;;;;;;;;;6175701;23;20413;-85
2023/12/03 00:40:54;;;;;;;19.73;9.53;;;;;;;;;;6167153;23;20430;-85
2023/12/03 00:43:27;;;;;;;17.20;10.53;;;;;;;;;;6170140;23;20418;-87
2023/12/03 00:45:58;;;;;;;18.67;11.07;;;;;;;;;;6168411;23;20915;-86
2023/12/03 00:48:28;;;;;;;15.77;10.23;;;;;;;;;;6193982;23;20418;-87
2023/12/03 00:50:58;;;;;;;17.30;10.20;;;;;;;;;;6170298;23;20548;-86
2023/12/03 00:53:33;;;;;;;19.03;9.77;;;;;;;;;;6194597;23;20881;-87
2023/12/03 00:56:00;;;;;;;17.70;10.90;;;;;;;;;;6192903;23;20915;-87
2023/12/03 00:58:35;;;;;;;17.57;10.90;;;;;;;;;;6164406;23;20456;-88
2023/12/03 01:01:05;;;;;;;21.60;11.43;;;;;;;;;;6162154;23;20528;-87
2023/12/03 01:03:33;;;;;;;18.63;10.77;;;;;;;;;;6161520;23;20878;-87
2023/12/03 01:06:05;;;;;;;17.90;10.20;;;;;;;;;;6186793;23;20413;-86
2023/12/03 01:08:40;;;;;;;14.70;10.83;;;;;;;;;;6159983;23;20406;-85
2023/12/03 01:11:13;;;;;;;20.43;11.60;;;;;;;;;;6160427;23;21021;-86
2023/12/03 01:14:17;;;;;;;16.30;10.80;;;;;;;;;;6165496;23;20410;-86
2023/12/03 01:17:18;;;;;;;18.67;10.97;;;;;;;;;;6186217;23;20410;-86
2023/12/03 01:20:06;;;;;;;15.47;11.03;;;;;;;;;;6161915;23;20452;-87
2023/12/03 01:23:04;;;;;;;17.53;10.10;;;;;;;;;;6166058;23;20438;-86
2023/12/03 01:26:12;;;;;;;16.20;9.90;;;;;;;;;;6168340;23;20481;-87
2023/12/03 01:28:52;;;;;;;16.13;10.23;;;;;;;;;;6178729;23;20425;-88
2023/12/03 01:31:29;;;;;;;16.93;10.40;;;;;;;;;;6178514;23;20489;-88
2023/12/03 01:33:59;;;;;;;15.67;10.20;;;;;;;;;;6176916;23;20406;-82
2023/12/03 01:43:33;;;;;;;14.80;9.90;;;;;;;;;;6167217;23;20477;-88
2023/12/03 01:53:36;;;;;;;;;;;;;;;;;;;;;
2023/12/03 01:56:28;;;;;;;13.97;8.50;;;;;;;;;;6115417;23;20516;-85
2023/12/03 01:58:58;;;;;;;15.93;9.40;;;;;;;;;;6094819;23;20420;-87
2023/12/03 02:01:28;;;;;;;17.27;9.97;;;;;;;;;;6196148;23;20445;-85
2023/12/03 02:03:56;;;;;;;16.20;10.50;;;;;;;;;;6169409;23;20418;-88
2023/12/03 02:06:33;;;;;;;17.07;10.67;;;;;;;;;;6161593;23;20871;-87
2023/12/03 02:09:02;;;;;;;16.67;9.30;;;;;;;;;;6160150;23;20374;-86
2023/12/03 02:11:31;;;;;;;19.40;9.03;;;;;;;;;;6157580;23;21103;-86
2023/12/03 02:13:59;;;;;;;15.30;9.70;;;;;;;;;;6158735;23;20409;-87
2023/12/03 02:16:51;;;;;;;19.07;10.33;;;;;;;;;;6158492;23;20422;-87
2023/12/03 02:19:55;;;;;;;17.83;10.37;;;;;;;;;;6161573;23;20433;-87
2023/12/03 02:23:18;;;;;;;19.20;9.87;;;;;;;;;;6162516;23;20362;-86
2023/12/03 02:26:24;;;;;;;18.73;10.73;;;;;;;;;;6147814;23;20403;-85
2023/12/03 02:32:40;;;;;;;16.37;10.30;;;;;;;;;;6094896;23;20392;-86
2023/12/03 02:35:36;;;;;;;13.73;9.17;;;;;;;;;;6012866;23;20536;-85
2023/12/03 02:38:42;;;;;;;;;;;;;;;;;;;;;
2023/12/03 03:11:38;;;;;;;17.17;9.30;;;;;;;;;;5767613;24;20890;-83
2023/12/03 03:14:16;;;;;;;16.80;9.90;;;;;;;;;;5852250;24;21475;-84
2023/12/03 03:16:46;;;;;;;12.23;9.10;;;;;;;;;;5849036;24;20467;-86
2023/12/03 03:19:17;;;;;;;20.83;11.90;;;;;;;;;;5845382;24;20550;-85
2023/12/03 03:21:49;;;;;;;15.33;9.70;;;;;;;;;;5885466;24;20979;-87
2023/12/03 03:24:19;;;;;;;14.13;8.97;;;;;;;;;;5929212;24;20956;-87
2023/12/03 03:26:49;;;;;;;15.37;9.63;;;;;;;;;;5941933;23;20442;-87
2023/12/03 03:29:26;;;;;;;14.43;8.83;;;;;;;;;;6013634;23;20430;-85
2023/12/03 03:32:02;;;;;;;13.37;7.97;;;;;;;;;;6055975;23;20674;-86
2023/12/03 03:34:30;;;;;;;14.30;8.57;;;;;;;;;;6131173;23;20427;-86
2023/12/03 03:36:59;;;;;;;14.67;8.67;;;;;;;;;;6130411;23;20414;-86
2023/12/03 03:49:02;;;;;;;10.53;7.63;;;;;;;;;;6129040;23;20808;-85
2023/12/03 03:51:33;;;;;;;13.80;8.23;;;;;;;;;;6159972;23;20474;-84
2023/12/03 03:54:06;;;;;;;12.60;7.83;;;;;;;;;;6159104;23;20445;-85
2023/12/03 03:56:33;;;;;;;19.07;7.97;;;;;;;;;;6186641;23;20903;-83
2023/12/03 03:59:06;;;;;;;14.43;8.30;;;;;;;;;;6160944;23;20406;-86
2023/12/03 04:01:33;;;;;;;12.90;7.80;;;;;;;;;;6161128;23;20484;-85
2023/12/03 04:04:01;;;;;;;15.33;7.83;;;;;;;;;;6185468;23;21005;-85
2023/12/03 04:06:38;;;;;;;11.47;7.63;;;;;;;;;;6162466;23;20436;-85
2023/12/03 04:09:09;;;;;;;16.77;8.53;;;;;;;;;;6160585;23;20448;-85
2023/12/03 04:11:40;;;;;;;12.53;7.70;;;;;;;;;;6158422;23;20445;-87
2023/12/03 04:14:15;;;;;;;13.97;8.37;;;;;;;;;;6160978;23;20644;-87
2023/12/03 04:16:47;;;;;;;16.10;8.93;;;;;;;;;;6159969;23;20405;-86
2023/12/03 04:19:14;;;;;;;14.73;8.50;;;;;;;;;;6159370;23;20969;-87
2023/12/03 04:21:41;;;;;;;13.60;7.97;;;;;;;;;;6160937;23;20481;-85
2023/12/03 04:24:10;;;;;;;16.70;8.57;;;;;;;;;;6160488;23;20417;-88
2023/12/03 04:26:44;;;;;;;12.03;7.83;;;;;;;;;;6158601;23;20479;-85
2023/12/03 04:29:12;;;;;;;13.63;7.53;;;;;;;;;;6159874;23;20438;-86
2023/12/03 04:31:39;;;;;;;13.53;7.77;;;;;;;;;;6158595;23;20446;-85
2023/12/03 04:34:07;;;;;;;11.50;7.20;;;;;;;;;;6158835;23;20440;-86
2023/12/03 04:36:38;;;;;;;11.90;7.00;;;;;;;;;;6160652;23;20441;-86
2023/12/03 04:39:06;;;;;;;9.57;6.30;;;;;;;;;;6159162;23;20417;-87
2023/12/03 04:41:34;;;;;;;14.77;7.20;;;;;;;;;;6158276;23;20424;-85
2023/12/03 04:44:05;;;;;;;13.83;8.30;;;;;;;;;;6173348;23;20413;-84
2023/12/03 04:46:35;;;;;;;13.07;7.87;;;;;;;;;;6183352;23;20504;-85
2023/12/03 04:49:02;;;;;;;13.70;7.50;;;;;;;;;;6184378;23;20410;-85
2023/12/03 04:51:31;;;;;;;11.73;6.27;;;;;;;;;;6184475;23;20445;-85
2023/12/03 04:53:59;;;;;;;10.20;6.90;;;;;;;;;;6197545;23;20485;-85
2023/12/03 04:56:29;;;;;;;11.70;7.70;;;;;;;;;;6204816;23;20402;-85
2023/12/03 04:58:58;;;;;;;10.03;6.27;;;;;;;;;;6204353;23;20418;-85
2023/12/03 05:01:26;;;;;;;13.07;6.97;;;;;;;;;;6205421;23;20422;-87
2023/12/03 05:03:53;;;;;;;9.63;5.90;;;;;;;;;;6205867;23;20473;-86
2023/12/03 05:06:26;;;;;;;13.00;6.80;;;;;;;;;;6206544;23;20429;-85
2023/12/03 05:08:54;;;;;;;10.40;6.00;;;;;;;;;;6206972;23;20414;-87
2023/12/03 05:11:21;;;;;;;16.20;7.80;;;;;;;;;;6207562;23;20437;-87
2023/12/03 05:13:50;;;;;;;14.60;7.30;;;;;;;;;;6199398;23;20420;-85
2023/12/03 05:16:18;;;;;;;9.87;6.40;;;;;;;;;;6191073;23;20462;-85
2023/12/03 05:18:50;;;;;;;12.03;6.30;;;;;;;;;;6192564;23;20415;-86
2023/12/03 05:21:17;;;;;;;12.20;7.60;;;;;;;;;;6184408;23;20414;-84
2023/12/03 05:23:47;;;;;;;11.40;6.93;;;;;;;;;;6184154;23;20915;-85
2023/12/03 05:26:17;;;;;;;11.80;7.20;;;;;;;;;;6185210;23;20441;-85
2023/12/03 05:28:46;;;;;;;10.07;6.07;;;;;;;;;;6187997;23;20402;-84
2023/12/03 05:31:16;;;;;;;12.63;6.73;;;;;;;;;;6201754;23;20429;-85
2023/12/03 05:33:53;;;;;;;11.00;6.53;;;;;;;;;;6200970;23;20406;-86
2023/12/03 05:36:24;;;;;;;12.50;7.03;;;;;;;;;;6190131;23;20466;-86
2023/12/03 05:38:53;;;;;;;9.30;6.50;;;;;;;;;;6177298;23;20534;-85
2023/12/03 05:41:20;;;;;;;11.70;6.70;;;;;;;;;;6171058;23;20460;-86
2023/12/03 05:43:55;;;;;;;10.07;6.60;;;;;;;;;;6173651;23;20414;-86
2023/12/03 05:46:25;;;;;;;13.20;7.17;;;;;;;;;;6166487;23;20458;-85
2023/12/03 05:48:55;;;;;;;15.20;6.53;;;;;;;;;;6163020;23;20436;-86
2023/12/03 05:51:23;;;;;;;7.83;5.77;;;;;;;;;;6187585;23;20451;-85
2023/12/03 05:53:50;;;;;;;9.73;5.83;;;;;;;;;;6191552;23;20773;-85
2023/12/03 05:56:19;;;;;;;12.50;5.90;;;;;;;;;;6187608;23;20420;-86
2023/12/03 05:58:46;;;;;;;11.87;7.43;;;;;;;;;;6189783;23;20910;-85
2023/12/03 06:01:23;;;;;;;11.07;6.50;;;;;;;;;;6193212;23;20497;-86
2023/12/03 06:03:51;;;;;;;10.80;6.10;;;;;;;;;;6186252;23;20449;-86
2023/12/03 06:06:19;;;;;;;15.63;6.73;;;;;;;;;;6202859;23;20402;-85
2023/12/03 06:08:46;;;;;;;10.30;6.00;;;;;;;;;;6206682;23;20409;-86
2023/12/03 06:11:18;;;;;;;9.63;7.00;;;;;;;;;;6206214;23;20483;-87
2023/12/03 06:13:47;;;;;;;9.63;6.70;;;;;;;;;;6203214;23;20410;-87
2023/12/03 06:16:15;;;;;;;11.90;7.23;;;;;;;;;;6195609;23;20437;-87
2023/12/03 06:18:45;;;;;;;15.10;7.77;;;;;;;;;;6195485;23;20409;-86
2023/12/03 06:21:14;;;;;;;14.40;6.53;;;;;;;;;;6192607;23;20453;-87
2023/12/03 06:23:46;;;;;;;12.03;6.67;;;;;;;;;;6189409;23;20406;-86
2023/12/03 06:26:13;;;;;;;11.67;7.90;;;;;;;;;;6188997;23;20410;-86
2023/12/03 06:28:41;;;;;;;13.53;7.80;;;;;;;;;;6186491;23;20421;-86
2023/12/03 06:31:08;;;;;;;10.73;7.07;;;;;;;;;;6185214;23;20433;-86
2023/12/03 06:33:35;;;;;;;10.57;6.00;;;;;;;;;;6185606;23;20469;-86
2023/12/03 06:36:05;;;;;;;11.50;6.83;;;;;;;;;;6184508;23;20510;-87
2023/12/03 06:38:35;;;;;;;12.63;6.50;;;;;;;;;;6188169;23;20441;-86
2023/12/03 06:41:05;;;;;;;11.63;7.60;;;;;;;;;;6195606;23;20556;-86
2023/12/03 06:43:39;;;;;;;9.67;5.60;;;;;;;;;;6199161;23;20417;-84
2023/12/03 06:46:10;;;;;;;11.53;6.37;;;;;;;;;;6182779;23;20414;-85
2023/12/03 06:48:42;;;;;;;13.47;7.30;;;;;;;;;;6193091;23;20410;-86
2023/12/03 06:51:10;;;;;;;10.97;6.73;;;;;;;;;;6180733;23;20434;-86
2023/12/03 06:53:39;;;;;;;13.40;7.33;;;;;;;;;;6183716;23;20449;-86
2023/12/03 06:56:08;;;;;;;12.40;7.40;;;;;;;;;;6183643;23;20474;-87
2023/12/03 06:58:37;;;;;;;10.53;7.27;;;;;;;;;;6183453;23;20911;-86
2023/12/03 07:01:07;;;;;;;9.77;6.13;;;;;;;;;;6182599;23;20438;-85
2023/12/03 07:03:34;;;;;;;14.87;6.93;;;;;;;;;;6185360;23;20473;-87
2023/12/03 07:06:02;;;;;;;17.30;7.20;;;;;;;;;;6185743;23;20420;-87
2023/12/03 07:08:34;;;;;;;14.37;7.47;;;;;;;;;;6184866;23;20470;-85
2023/12/03 07:11:01;;;;;;;11.13;7.07;;;;;;;;;;6186713;23;20444;-86
2023/12/03 07:13:29;;;;;;;11.77;6.70;;;;;;;;;;6190265;23;20445;-85
2023/12/03 07:16:01;;;;;;;11.20;7.10;;;;;;;;;;6188011;23;20496;-86
2023/12/03 07:18:30;;;;;;;15.57;8.23;;;;;;;;;;6191635;23;20496;-86
2023/12/03 07:21:00;;;;;;;12.43;6.83;;;;;;;;;;6193024;23;20445;-87
2023/12/03 07:23:28;;;;;;;11.47;7.50;;;;;;;;;;6190704;23;20926;-86
2023/12/03 07:25:59;;;;;;;14.67;7.37;;;;;;;;;;6187939;23;20413;-85
2023/12/03 07:28:26;;;;;;;14.10;6.67;;;;;;;;;;6188149;23;20418;-86
2023/12/03 07:30:57;;;;;;;13.67;6.93;;;;;;;;;;6188509;23;20438;-85
2023/12/03 07:33:24;;;;;;;9.80;7.10;;;;;;;;;;6188367;23;20488;-87
2023/12/03 07:35:54;;;;;;;12.37;7.33;;;;;;;;;;6192753;23;20468;-87
2023/12/03 07:38:25;;;;;;;10.80;6.40;;;;;;;;;;6193736;23;20410;-88
2023/12/03 07:40:56;;;;;;;12.50;6.30;;;;;;;;;;6194890;23;20513;-88
2023/12/03 07:43:27;;;;;;;13.63;8.47;;;;;;;;;;6195996;23;20410;-87
2023/12/03 07:45:56;;;;;;;13.50;6.33;;;;;;;;;;6197089;23;20454;-88
2023/12/03 07:48:26;;;;;;;11.73;6.43;;;;;;;;;;6196969;23;20416;-87
2023/12/03 07:50:56;;;;;;;13.67;7.90;;;;;;;;;;6199804;23;20426;-87
2023/12/03 07:53:30;;;;;;;14.30;7.50;;;;;;;;;;6204818;23;20468;-88
2023/12/03 07:56:01;;;;;;;11.10;6.60;;;;;;;;;;6197447;23;20405;-87
2023/12/03 07:58:35;;;;;;;9.70;6.33;;;;;;;;;;6203799;23;20405;-86
2023/12/03 08:01:07;;;;;;;12.00;6.40;;;;;;;;;;6206865;23;20438;-83
2023/12/03 08:03:36;;;;;;;11.33;6.17;;;;;;;;;;6204847;23;20390;-86
2023/12/03 08:06:05;;;;;;;11.77;6.57;;;;;;;;;;6205230;23;20390;-86
2023/12/03 08:08:34;;;;;;;12.80;7.23;;;;;;;;;;6191436;23;20947;-86
2023/12/03 08:11:04;;;;;;;13.53;7.47;;;;;;;;;;6197295;23;20426;-87
2023/12/03 08:13:41;;;;;;;12.43;7.07;;;;;;;;;;6187616;23;20444;-87
2023/12/03 08:16:09;;;;;;;15.23;8.00;;;;;;;;;;6191957;23;20410;-85
2023/12/03 08:18:42;;;;;;;11.80;6.57;;;;;;;;;;6199847;23;20410;-86
2023/12/03 08:21:15;;;;;;;13.17;6.37;;;;;;;;;;6185305;23;20405;-85
2023/12/03 08:23:43;;;;;;;9.33;6.27;;;;;;;;;;6185428;23;20596;-87
2023/12/03 08:26:10;;;;;;;12.83;6.80;;;;;;;;;;6186606;23;20422;-87
2023/12/03 08:28:40;;;;;;;12.00;7.30;;;;;;;;;;6190951;23;21034;-88
2023/12/03 08:31:10;;;;;;;10.87;6.47;;;;;;;;;;6184840;23;20434;-85
2023/12/03 08:33:40;;;;;;;20.53;8.73;;;;;;;;;;6183641;23;20449;-86
2023/12/03 08:36:17;;;;;;;13.87;8.33;;;;;;;;;;6185098;23;20414;-87
2023/12/03 08:38:48;;;;;;;13.63;7.77;;;;;;;;;;6182233;23;20883;-87
2023/12/03 08:41:16;;;;;;;13.70;7.50;;;;;;;;;;6186936;23;20414;-85
2023/12/03 08:43:46;;;;;;;14.23;6.73;;;;;;;;;;6189706;23;20406;-86
2023/12/03 08:46:17;;;;;;;10.87;7.30;;;;;;;;;;6197622;23;20408;-84
2023/12/03 08:48:47;;;;;;;10.27;6.40;;;;;;;;;;6199161;23;20405;-87
2023/12/03 08:51:23;;;;;;;11.57;6.90;;;;;;;;;;6196902;23;20409;-87
2023/12/03 08:53:55;;;;;;;15.27;7.40;;;;;;;;;;6197524;23;20421;-86
2023/12/03 08:56:23;;;;;;;12.70;8.37;;;;;;;;;;6209547;23;20402;-86
2023/12/03 08:58:53;;;;;;;10.83;6.90;;;;;;;;;;6207275;23;20446;-84
2023/12/03 09:01:22;;;;;;;13.97;6.90;;;;;;;;;;6160495;23;20465;-87
2023/12/03 09:04:06;;;;;;;11.27;6.60;;;;;;;;;;6186592;23;20418;-86
2023/12/03 09:06:38;;;;;;;13.40;7.27;;;;;;;;;;6172182;23;20389;-86
2023/12/03 09:09:08;;;;;;;13.13;7.90;;;;;;;;;;6165560;23;20410;-84
2023/12/03 09:11:38;;;;;;;12.00;6.73;;;;;;;;;;6141332;23;20403;-84
2023/12/03 09:14:05;;;;;;;12.73;6.97;;;;;;;;;;6165316;23;20401;-84
2023/12/03 09:16:35;;;;;;;14.67;7.83;;;;;;;;;;6138602;23;20498;-85
2023/12/03 09:19:13;;;;;;;14.70;8.23;;;;;;;;;;6142253;23;20426;-85
2023/12/03 09:21:54;;;;;;;12.93;7.90;;;;;;;;;;6135043;23;20421;-85
2023/12/03 09:27:00;;;;;;;10.53;5.37;;;;;;;;;;6168050;23;20426;-86
2023/12/03 09:29:30;;;;;;;12.20;7.13;;;;;;;;;;6141533;23;20431;-86
2023/12/03 09:31:59;;;;;;;11.20;7.13;;;;;;;;;;6166490;23;20514;-85
2023/12/03 09:34:40;;;;;;;15.20;8.67;;;;;;;;;;6145791;23;20391;-84
2023/12/03 09:37:09;;;;;;;13.07;6.83;;;;;;;;;;6141459;23;20410;-85
2023/12/03 09:39:39;;;;;;;11.70;7.20;;;;;;;;;;6142718;23;20462;-86
2023/12/03 09:42:07;;;;;;;11.83;7.87;;;;;;;;;;6141792;23;20398;-83
2023/12/03 09:44:46;;;;;;;14.17;7.13;;;;;;;;;;6167065;23;20417;-87
2023/12/03 09:47:22;;;;;;;13.33;7.07;;;;;;;;;;6142985;23;20406;-84
2023/12/03 09:50:10;;;;;;;13.13;6.60;;;;;;;;;;6118117;23;20461;-83
2023/12/03 09:52:49;;;;;;;16.57;8.93;;;;;;;;;;6169231;23;20415;-87
2023/12/03 09:55:25;;;;;;;10.67;6.83;;;;;;;;;;6140842;23;20887;-85
2023/12/03 09:57:59;;;;;;;12.43;6.87;;;;;;;;;;6142532;23;20387;-85
2023/12/03 10:00:31;;;;;;;11.37;6.93;;;;;;;;;;6167548;23;20433;-86
2023/12/03 10:03:04;;;;;;;11.93;6.60;;;;;;;;;;6142470;23;20395;-86
2023/12/03 10:05:46;;;;;;;16.27;8.83;;;;;;;;;;6146970;23;20952;-88
2023/12/03 10:08:42;;;;;;;14.77;9.80;;;;;;;;;;6138621;23;20417;-86
2023/12/03 10:11:14;;;;;;;16.60;7.33;;;;;;;;;;6132978;23;20438;-87
2023/12/03 10:13:44;;;;;;;10.87;7.50;;;;;;;;;;6140273;23;20430;-86
2023/12/03 10:16:14;;;;;;;10.83;6.73;;;;;;;;;;6131335;23;20399;-86
2023/12/03 10:18:44;;;;;;;13.90;7.40;;;;;;;;;;6137792;23;20478;-87
2023/12/03 10:21:15;;;;;;;16.00;8.57;;;;;;;;;;6138893;23;20489;-88
2023/12/03 10:24:05;;;;;;;13.27;8.23;;;;;;;;;;6137857;23;20411;-85
2023/12/03 10:26:37;;;;;;;15.83;10.70;;;;;;;;;;6166830;23;20428;-86
2023/12/03 10:29:07;;;;;;;16.63;8.10;;;;;;;;;;6194823;23;20401;-87
2023/12/03 10:31:44;;;;;;;18.60;9.33;;;;;;;;;;6170230;23;20401;-88
2023/12/03 10:34:14;;;;;;;16.93;8.60;;;;;;;;;;6167648;23;20508;-86
2023/12/03 10:36:55;;;;;;;14.20;8.47;;;;;;;;;;6170744;23;20391;-87
2023/12/03 10:39:23;;;;;;;22.60;6.70;;;;;;;;;;6167047;23;20433;-85
2023/12/03 10:41:53;;;;;;;14.60;8.30;;;;;;;;;;6169851;23;20907;-87
2023/12/03 10:44:23;;;;;;;15.50;7.77;;;;;;;;;;6165691;23;20900;-86
2023/12/03 10:46:58;;;;;;;15.87;9.10;;;;;;;;;;6142610;23;20449;-87
2023/12/03 10:49:26;;;;;;;14.67;8.30;;;;;;;;;;6170379;23;20457;-85
2023/12/03 10:51:59;;;;;;;15.10;8.73;;;;;;;;;;6168691;23;20469;-86
2023/12/03 10:54:35;;;;;;;17.03;9.00;;;;;;;;;;6180853;23;20402;-88
2023/12/03 10:57:09;;;;;;;16.67;8.83;;;;;;;;;;6182722;23;20409;-87
2023/12/03 10:59:41;;;;;;;18.30;9.30;;;;;;;;;;6205993;23;20434;-90
2023/12/03 11:02:11;;;;;;;13.17;7.33;;;;;;;;;;6180611;23;20449;-85
2023/12/03 11:04:43;;;;;;;13.63;7.30;;;;;;;;;;6181315;23;20441;-85
2023/12/03 11:07:15;;;;;;;15.07;8.87;;;;;;;;;;6183247;23;20428;-87
2023/12/03 11:09:42;;;;;;;14.57;8.00;;;;;;;;;;6181866;23;20421;-86
2023/12/03 11:12:16;;;;;;;17.90;9.10;;;;;;;;;;6182083;23;20478;-87
2023/12/03 11:14:54;;;;;;;18.00;9.20;;;;;;;;;;6177737;23;20402;-87
2023/12/03 11:17:37;;;;;;;14.80;9.57;;;;;;;;;;6149676;23;20433;-85
2023/12/03 11:20:13;;;;;;;12.93;8.30;;;;;;;;;;6172402;23;20461;-82
2023/12/03 11:23:08;;;;;;;15.73;8.50;;;;;;;;;;6169227;23;20399;-84
2023/12/03 11:26:04;;;;;;;13.50;8.40;;;;;;;;;;6166538;23;20425;-85
2023/12/03 11:28:34;;;;;;;15.73;8.77;;;;;;;;;;6105981;23;20449;-88
2023/12/03 11:31:01;;;;;;;16.50;8.50;;;;;;;;;;6170945;23;20434;-85
2023/12/03 11:33:30;;;;;;;13.30;8.57;;;;;;;;;;6176093;23;20440;-86
2023/12/03 11:36:05;;;;;;;13.07;8.43;;;;;;;;;;6194181;23;20525;-86
2023/12/03 11:38:34;;;;;;;19.10;9.53;;;;;;;;;;6236273;22;20408;-86
2023/12/03 11:41:04;;;;;;;14.90;7.70;;;;;;;;;;6208657;23;20426;-84
2023/12/03 11:43:33;;;;;;;15.70;8.73;;;;;;;;;;6230173;22;20402;-86
2023/12/03 11:46:14;;;;;;;12.60;7.57;;;;;;;;;;6215154;23;20410;-86
2023/12/03 11:48:45;;;;;;;13.50;7.23;;;;;;;;;;6191037;23;20412;-85
2023/12/03 11:51:12;;;;;;;11.73;7.53;;;;;;;;;;6215378;23;20617;-87
2023/12/03 11:53:41;;;;;;;13.63;7.97;;;;;;;;;;6216721;23;20444;-88
2023/12/03 11:56:14;;;;;;;8.30;5.93;;;;;;;;;;6194098;23;20464;-88
2023/12/03 11:58:54;;;;;;;12.63;7.83;;;;;;;;;;6218532;23;20506;-84
2023/12/03 12:01:27;;;;;;;13.40;7.50;;;;;;;;;;6196072;23;20410;-85
2023/12/03 12:03:59;;;;;;;10.87;7.97;;;;;;;;;;6195540;23;20414;-85
2023/12/03 12:06:31;;;;;;;12.00;7.57;;;;;;;;;;6223162;23;20424;-87
2023/12/03 12:09:21;;;;;;;11.67;7.93;;;;;;;;;;6226050;23;20409;-85
2023/12/03 12:11:54;;;;;;;11.43;7.37;;;;;;;;;;6224411;23;20438;-85
2023/12/03 12:14:25;;;;;;;11.13;5.70;;;;;;;;;;6221058;23;20568;-86
2023/12/03 12:17:03;;;;;;;11.50;7.67;;;;;;;;;;6220450;23;20413;-86
2023/12/03 12:19:50;;;;;;;12.17;7.20;;;;;;;;;;6216408;23;20500;-86
2023/12/03 12:22:34;;;;;;;13.50;7.83;;;;;;;;;;6214607;23;20394;-87
2023/12/03 12:25:14;;;;;;;13.87;7.27;;;;;;;;;;6219108;23;20414;-86
2023/12/03 12:27:57;;;;;;;9.50;6.00;;;;;;;;;;6196393;23;20453;-87
2023/12/03 12:30:34;;;;;;;10.77;7.57;;;;;;;;;;6218314;23;20430;-88
2023/12/03 12:33:08;;;;;;;10.57;6.43;;;;;;;;;;6218700;23;20442;-86
2023/12/03 12:35:39;;;;;;;12.57;7.10;;;;;;;;;;6220303;23;20461;-86
2023/12/03 12:38:32;;;;;;;9.80;6.13;;;;;;;;;;6195893;23;20421;-85
2023/12/03 12:41:39;;;;;;;9.53;6.47;;;;;;;;;;6166036;23;20485;-85
2023/12/03 12:44:07;;;;;;;7.33;4.70;;;;;;;;;;6180724;23;20857;-86
2023/12/03 12:46:52;;;;;;;10.83;6.77;;;;;;;;;;6194046;23;20497;-84
2023/12/03 12:49:34;;;;;;;11.03;5.80;;;;;;;;;;6192219;23;20486;-87
2023/12/03 12:52:10;;;;;;;11.40;5.80;;;;;;;;;;6191522;23;20442;-87
2023/12/03 12:54:48;;;;;;;16.20;9.10;;;;;;;;;;6193372;23;20448;-88
2023/12/03 12:57:16;;;;;;;15.57;8.07;;;;;;;;;;6191190;23;20409;-86
2023/12/03 12:59:51;;;;;;;15.07;8.80;;;;;;;;;;6194714;23;20437;-84
2023/12/03 13:02:19;;;;;;;10.63;6.53;;;;;;;;;;6187621;23;20449;-86
2023/12/03 13:04:47;;;;;;;12.20;7.40;;;;;;;;;;6193952;23;20789;-85
2023/12/03 13:07:17;;;;;;;11.30;7.13;;;;;;;;;;6168785;23;20414;-86
2023/12/03 13:09:44;;;;;;;14.33;8.60;;;;;;;;;;6195984;23;20436;-87
2023/12/03 13:12:12;;;;;;;13.10;8.10;;;;;;;;;;6195828;23;20410;-87
2023/12/03 13:14:43;;;;;;;12.20;8.87;;;;;;;;;;6194273;23;21004;-86
2023/12/03 13:17:12;;;;;;;13.90;7.77;;;;;;;;;;6192467;23;20416;-87
2023/12/03 13:19:40;;;;;;;11.50;5.43;;;;;;;;;;6190216;23;20445;-84
2023/12/03 13:22:10;;;;;;;15.60;8.50;;;;;;;;;;6192427;23;20402;-86
2023/12/03 13:24:42;;;;;;;11.17;7.50;;;;;;;;;;6193194;23;20406;-86
2023/12/03 13:27:10;;;;;;;13.13;9.10;;;;;;;;;;6191458;23;20517;-87
2023/12/03 13:29:42;;;;;;;16.93;8.10;;;;;;;;;;6192396;23;20446;-86
2023/12/03 13:32:20;;;;;;;10.07;6.43;;;;;;;;;;6194771;23;20428;-85
2023/12/03 13:34:52;;;;;;;9.47;6.13;;;;;;;;;;6191693;23;20473;-88
2023/12/03 13:37:39;;;;;;;13.53;7.03;;;;;;;;;;6200137;23;20873;-86
2023/12/03 13:40:07;;;;;;;13.80;8.10;;;;;;;;;;6213176;23;20449;-86
2023/12/03 13:42:39;;;;;;;12.50;6.90;;;;;;;;;;6186806;23;20485;-85
2023/12/03 13:45:18;;;;;;;15.07;8.27;;;;;;;;;;6215764;23;20425;-85
2023/12/03 13:47:59;;;;;;;14.30;7.13;;;;;;;;;;6214298;23;20449;-86
2023/12/03 13:50:27;;;;;;;10.43;7.10;;;;;;;;;;6216313;23;20430;-85
2023/12/03 13:52:58;;;;;;;10.17;7.90;;;;;;;;;;6216771;23;20533;-86
2023/12/03 13:55:31;;;;;;;11.10;7.00;;;;;;;;;;6216597;23;20875;-85
2023/12/03 13:58:05;;;;;;;11.20;6.80;;;;;;;;;;6215588;23;20414;-86
2023/12/03 14:00:35;;;;;;;12.73;6.67;;;;;;;;;;6215499;23;20436;-85
2023/12/03 14:03:08;;;;;;;10.50;5.73;;;;;;;;;;6193074;23;20414;-83
2023/12/03 14:05:40;;;;;;;8.53;5.57;;;;;;;;;;6217810;23;20414;-85
2023/12/03 14:08:07;;;;;;;10.33;6.97;;;;;;;;;;6220739;23;20410;-86
2023/12/03 14:10:36;;;;;;;10.30;5.20;;;;;;;;;;6221324;23;20438;-87
2023/12/03 14:13:11;;;;;;;10.40;5.30;;;;;;;;;;6194671;23;20414;-85
2023/12/03 14:15:57;;;;;;;8.27;5.40;;;;;;;;;;6217690;23;20473;-86
2023/12/03 14:18:25;;;;;;;11.97;7.47;;;;;;;;;;6218909;23;20390;-85
2023/12/03 14:20:58;;;;;;;13.10;8.33;;;;;;;;;;6225889;22;20457;-85
2023/12/03 14:23:28;;;;;;;13.70;8.33;;;;;;;;;;6229569;22;20520;-86
2023/12/03 14:25:57;;;;;;;13.83;7.03;;;;;;;;;;6224698;23;20413;-86
2023/12/03 14:28:36;;;;;;;12.73;8.40;;;;;;;;;;6213951;23;20414;-84
2023/12/03 14:31:04;;;;;;;9.30;6.67;;;;;;;;;;6213324;23;20486;-86
2023/12/03 14:33:31;;;;;;;13.50;8.20;;;;;;;;;;6190534;23;20442;-87
2023/12/03 14:36:02;;;;;;;13.07;7.73;;;;;;;;;;6216627;23;20413;-85
2023/12/03 14:38:30;;;;;;;11.70;7.20;;;;;;;;;;6200749;23;20433;-86
2023/12/03 14:40:57;;;;;;;11.80;6.37;;;;;;;;;;6193476;23;20441;-85
2023/12/03 14:43:25;;;;;;;13.67;8.50;;;;;;;;;;6189088;23;20434;-87
2023/12/03 14:45:55;;;;;;;15.10;9.50;;;;;;;;;;6187703;23;20386;-87
2023/12/03 14:48:30;;;;;;;17.77;9.10;;;;;;;;;;6191210;23;20410;-84
2023/12/03 14:51:00;;;;;;;17.53;9.53;;;;;;;;;;6190375;23;20426;-87
2023/12/03 14:53:33;;;;;;;12.00;7.03;;;;;;;;;;6192744;23;20509;-86
2023/12/03 14:56:02;;;;;;;14.87;8.43;;;;;;;;;;6140392;23;20436;-87
2023/12/03 14:58:30;;;;;;;15.27;8.60;;;;;;;;;;6187870;23;20420;-86
2023/12/03 15:00:59;;;;;;;11.17;6.30;;;;;;;;;;6184981;23;20430;-87
2023/12/03 15:03:27;;;;;;;15.93;9.20;;;;;;;;;;6186775;23;20422;-87
2023/12/03 15:05:54;;;;;;;13.97;7.53;;;;;;;;;;6187254;23;20497;-86
2023/12/03 15:08:24;;;;;;;13.37;8.90;;;;;;;;;;6190682;23;20484;-86
2023/12/03 15:14:33;;;;;;;13.77;6.93;;;;;;;;;;6012768;23;20451;-85
2023/12/03 15:17:06;;;;;;;11.17;7.90;;;;;;;;;;6012394;23;20438;-84
2023/12/03 15:19:37;;;;;;;14.57;9.57;;;;;;;;;;6087940;23;20499;-84
2023/12/03 15:22:10;;;;;;;13.47;7.73;;;;;;;;;;6073753;23;20439;-86
2023/12/03 15:24:41;;;;;;;18.90;8.00;;;;;;;;;;6074061;23;20424;-84
2023/12/03 15:27:16;;;;;;;13.83;8.57;;;;;;;;;;6097532;23;20444;-85
2023/12/03 15:29:46;;;;;;;13.47;8.40;;;;;;;;;;6073004;23;20447;-84
2023/12/03 15:32:16;;;;;;;11.00;6.70;;;;;;;;;;6077144;23;20409;-86
2023/12/03 15:34:43;;;;;;;16.03;9.40;;;;;;;;;;6072902;23;20444;-85
2023/12/03 15:37:16;;;;;;;13.30;7.33;;;;;;;;;;6089503;23;20506;-85
2023/12/03 15:39:43;;;;;;;13.77;9.20;;;;;;;;;;6126397;23;20439;-86
2023/12/03 15:42:13;;;;;;;12.80;9.63;;;;;;;;;;6126815;23;20447;-86
2023/12/03 15:44:43;;;;;;;16.57;10.27;;;;;;;;;;6138670;23;20414;-85
2023/12/03 15:47:14;;;;;;;14.60;9.27;;;;;;;;;;6184850;23;20406;-86
2023/12/03 15:49:44;;;;;;;11.63;8.00;;;;;;;;;;6214340;23;20434;-86
2023/12/03 15:52:18;;;;;;;15.70;8.87;;;;;;;;;;6231012;23;20413;-87
2023/12/03 15:54:47;;;;;;;10.83;6.87;;;;;;;;;;6228957;22;20444;-87
2023/12/03 15:57:14;;;;;;;16.20;9.30;;;;;;;;;;6218492;22;20441;-86
2023/12/03 15:59:42;;;;;;;15.27;7.23;;;;;;;;;;6173662;23;20437;-86
2023/12/03 16:02:10;;;;;;;13.80;8.50;;;;;;;;;;6173570;23;20437;-86
2023/12/03 16:04:37;;;;;;;14.00;6.93;;;;;;;;;;6171898;23;20473;-86
2023/12/03 16:07:12;;;;;;;15.47;8.90;;;;;;;;;;6169791;23;20397;-86
2023/12/03 16:09:46;;;;;;;13.33;6.80;;;;;;;;;;6189254;23;20962;-84